createdAt,value
2022-10-21T00:02:57.776Z,16.08
2022-10-21T00:12:59.126Z,17.05
2022-10-21T00:23:00.452Z,17.13
2022-10-21T00:33:03.197Z,15.45
2022-10-21T00:43:05.040Z,14.00
2022-10-21T00:53:06.367Z,14.63
2022-10-21T01:03:07.755Z,14.77
2022-10-21T01:13:09.209Z,14.80
2022-10-21T01:23:10.782Z,15.82
2022-10-21T01:33:12.104Z,15.98
2022-10-21T01:53:58.312Z,17.80
2022-10-21T02:03:59.699Z,17.08
2022-10-21T02:14:01.050Z,15.43
2022-10-21T02:24:02.519Z,16.77
2022-10-21T02:34:03.895Z,16.30
2022-10-21T02:44:05.313Z,15.23
2022-10-21T02:54:06.686Z,16.50
2022-10-21T03:04:07.989Z,14.60
2022-10-21T03:14:09.392Z,13.68
2022-10-21T03:24:15.342Z,18.58
2022-10-21T03:34:26.665Z,17.17
2022-10-21T03:44:28.019Z,17.40
2022-10-21T03:54:29.352Z,19.58
2022-10-21T04:04:30.774Z,18.10
2022-10-21T04:14:32.105Z,15.13
2022-10-21T04:24:33.506Z,14.40
2022-10-21T04:34:35.043Z,15.05
2022-10-21T04:44:36.501Z,15.43
2022-10-21T04:54:37.934Z,15.98
2022-10-21T05:04:39.264Z,13.82
2022-10-21T05:14:40.658Z,13.85
2022-10-21T05:24:42.149Z,14.25
2022-10-21T05:34:43.746Z,14.30
2022-10-21T05:44:45.109Z,15.38
2022-10-21T05:54:46.481Z,15.73
2022-10-21T06:04:47.831Z,15.63
2022-10-21T06:14:49.213Z,15.68
2022-10-21T06:24:50.953Z,16.58
2022-10-21T06:34:53.030Z,17.02
2022-10-21T06:44:56.627Z,14.75
2022-10-21T06:55:00.822Z,16.23
2022-10-21T07:05:02.255Z,18.02
2022-10-21T07:15:03.606Z,16.50
2022-10-21T07:25:04.961Z,17.48
2022-10-21T07:35:06.425Z,15.63
2022-10-21T07:45:07.820Z,17.50
2022-10-21T07:55:09.153Z,16.73
2022-10-21T08:05:10.486Z,14.52
2022-10-21T08:15:11.941Z,17.10
2022-10-21T08:25:16.777Z,16.33
2022-10-21T08:35:18.296Z,14.90
2022-10-21T08:45:19.656Z,14.30
2022-10-21T08:55:21.628Z,13.10
2022-10-21T09:05:23.067Z,10.93
2022-10-21T09:15:24.412Z,7.65
2022-10-21T09:25:25.852Z,4.90
2022-10-21T09:35:27.452Z,3.72
2022-10-21T09:45:28.785Z,2.80
2022-10-21T09:55:30.459Z,2.97
2022-10-21T10:05:31.799Z,2.95
2022-10-21T10:15:33.148Z,3.15
2022-10-21T10:25:34.545Z,2.88
2022-10-21T10:35:36.047Z,2.55
2022-10-21T10:45:37.314Z,3.13
2022-10-21T10:55:38.762Z,3.22
2022-10-21T11:05:40.127Z,3.05
2022-10-21T11:15:41.569Z,2.88
2022-10-21T11:25:42.961Z,2.92
2022-10-21T11:35:44.363Z,3.15
2022-10-21T11:45:45.742Z,7.10
2022-10-21T11:55:47.137Z,3.25
2022-10-21T12:05:48.617Z,3.35
2022-10-21T12:15:50.198Z,2.58
2022-10-21T12:25:51.551Z,2.78
2022-10-21T12:35:54.080Z,3.13
2022-10-21T12:45:55.407Z,2.72
2022-10-21T12:55:58.909Z,2.88
2022-10-21T13:06:02.272Z,1.65
2022-10-21T13:16:03.631Z,1.58
2022-10-21T13:26:05.018Z,1.58
2022-10-21T13:36:06.329Z,1.30
2022-10-21T13:46:07.718Z,1.60
2022-10-21T13:56:09.103Z,1.40
2022-10-21T14:06:10.565Z,1.80
2022-10-21T14:16:11.946Z,1.45
2022-10-21T14:26:13.543Z,1.77
2022-10-21T14:36:15.235Z,1.75
2022-10-21T14:46:16.964Z,1.50
2022-10-21T14:56:18.222Z,1.80
2022-10-21T15:06:19.599Z,1.90
2022-10-21T15:16:21.007Z,1.40
2022-10-21T15:26:22.348Z,1.55
2022-10-21T15:36:24.535Z,1.83
2022-10-21T15:46:26.685Z,1.27
2022-10-21T15:56:28.029Z,2.38
2022-10-21T16:06:29.387Z,1.60
2022-10-21T16:16:30.851Z,1.45
2022-10-21T16:26:33.243Z,2.15
2022-10-21T16:36:38.183Z,2.45
2022-10-21T16:46:39.507Z,1.40
2022-10-21T16:56:40.958Z,2.10
2022-10-21T17:06:42.379Z,1.90
2022-10-21T17:16:45.669Z,2.20
2022-10-21T17:26:47.037Z,3.03
2022-10-21T17:36:48.693Z,1.63
2022-10-21T17:46:54.337Z,1.60
2022-10-21T17:56:56.802Z,1.70
2022-10-21T18:06:58.245Z,1.90
2022-10-21T18:17:01.908Z,2.92
2022-10-21T18:27:03.237Z,2.08
2022-10-21T18:37:04.790Z,2.10
2022-10-21T18:47:06.108Z,4.13
2022-10-21T18:57:10.427Z,6.10
2022-10-21T19:07:11.722Z,7.23
2022-10-21T19:17:13.097Z,8.10
2022-10-21T19:27:14.422Z,7.65
2022-10-21T19:37:15.999Z,7.18
2022-10-21T19:47:17.310Z,5.35
2022-10-21T19:57:18.553Z,5.40
2022-10-21T20:07:19.975Z,4.30
2022-10-21T20:17:21.422Z,5.63
2022-10-21T20:27:22.797Z,4.13
2022-10-21T20:37:24.140Z,3.22
2022-10-21T20:47:27.549Z,3.90
2022-10-21T20:57:31.723Z,4.30
2022-10-21T21:07:33.069Z,2.63
2022-10-21T21:17:34.367Z,2.88
2022-10-21T21:27:35.606Z,2.60
2022-10-21T21:37:36.947Z,2.03
2022-10-21T21:47:38.346Z,1.85
2022-10-21T22:08:50.914Z,1.95
2022-10-21T22:18:52.217Z,1.90
2022-10-21T22:28:53.583Z,2.10
2022-10-21T22:38:54.929Z,1.63
2022-10-21T22:48:56.248Z,2.55
2022-10-21T22:58:57.609Z,2.22
2022-10-21T23:08:58.985Z,1.58
2022-10-21T23:19:00.595Z,1.48
2022-10-21T23:29:01.990Z,1.33
2022-10-21T23:39:03.390Z,1.58
2022-10-21T23:49:04.753Z,0.70
2022-10-21T23:59:06.985Z,0.80
